sensor_id;sensor_type;location;lat;lon;timestamp;pressure;altitude;pressure_sealevel;temperature;humidity
58739;BME280;44512;53.046;18.604;2022-09-25T00:03:26;101504.73;;;14.00;53.73
58739;BME280;44512;53.046;18.604;2022-09-25T00:13:54;101504.73;;;14.00;54.14
58739;BME280;44512;53.046;18.604;2022-09-25T00:24:21;101486.92;;;13.98;54.26
58739;BME280;44512;53.046;18.604;2022-09-25T00:34:50;101494.26;;;13.97;54.44
58739;BME280;44512;53.046;18.604;2022-09-25T00:45:19;101479.37;;;13.93;54.64
58739;BME280;44512;53.046;18.604;2022-09-25T00:55:48;101470.98;;;13.88;54.97
58739;BME280;44512;53.046;18.604;2022-09-25T01:06:16;101466.80;;;13.86;55.25
58739;BME280;44512;53.046;18.604;2022-09-25T01:16:54;101463.21;;;13.85;55.40
58739;BME280;44512;53.046;18.604;2022-09-25T01:48:11;101461.13;;;13.80;55.97
58739;BME280;44512;53.046;18.604;2022-09-25T01:58:45;101468.85;;;13.77;56.12
58739;BME280;44512;53.046;18.604;2022-09-25T02:09:09;101466.52;;;13.74;56.61
58739;BME280;44512;53.046;18.604;2022-09-25T02:19:34;101448.95;;;13.70;56.29
58739;BME280;44512;53.046;18.604;2022-09-25T02:30:03;101445.79;;;13.66;56.43
58739;BME280;44512;53.046;18.604;2022-09-25T02:40:55;101444.73;;;13.61;56.71
58739;BME280;44512;53.046;18.604;2022-09-25T02:51:09;101441.33;;;13.52;57.00
58739;BME280;44512;53.046;18.604;2022-09-25T03:01:31;101438.98;;;13.42;57.20
58739;BME280;44512;53.046;18.604;2022-09-25T03:11:56;101437.46;;;13.33;57.41
58739;BME280;44512;53.046;18.604;2022-09-25T03:22:24;101437.86;;;13.23;57.60
58739;BME280;44512;53.046;18.604;2022-09-25T03:32:53;101423.10;;;13.11;57.77
58739;BME280;44512;53.046;18.604;2022-09-25T03:43:21;101429.09;;;13.00;57.87
58739;BME280;44512;53.046;18.604;2022-09-25T03:53:50;101437.15;;;12.87;57.95
58739;BME280;44512;53.046;18.604;2022-09-25T04:04:18;101445.00;;;12.75;57.99
58739;BME280;44512;53.046;18.604;2022-09-25T04:14:46;101441.16;;;12.63;58.05
58739;BME280;44512;53.046;18.604;2022-09-25T04:25:15;101437.27;;;12.50;57.96
58739;BME280;44512;53.046;18.604;2022-09-25T04:35:43;101437.18;;;12.37;57.93
58739;BME280;44512;53.046;18.604;2022-09-25T04:46:12;101442.88;;;12.21;58.16
58739;BME280;44512;53.046;18.604;2022-09-25T04:56:42;101435.25;;;12.10;58.18
58739;BME280;44512;53.046;18.604;2022-09-25T05:07:09;101430.51;;;11.97;58.22
58739;BME280;44512;53.046;18.604;2022-09-25T05:17:37;101438.32;;;11.85;58.43
58739;BME280;44512;53.046;18.604;2022-09-25T05:28:06;101440.25;;;11.77;58.84
58739;BME280;44512;53.046;18.604;2022-09-25T05:38:35;101435.24;;;11.73;59.55
58739;BME280;44512;53.046;18.604;2022-09-25T05:49:03;101434.64;;;11.78;60.34
58739;BME280;44512;53.046;18.604;2022-09-25T05:59:30;101434.20;;;11.89;61.10
58739;BME280;44512;53.046;18.604;2022-09-25T06:09:59;101442.87;;;11.99;61.56
58739;BME280;44512;53.046;18.604;2022-09-25T06:20:27;101451.44;;;12.03;62.05
58739;BME280;44512;53.046;18.604;2022-09-25T06:30:59;101440.68;;;12.10;62.35
58739;BME280;44512;53.046;18.604;2022-09-25T06:41:24;101444.41;;;12.09;62.46
58739;BME280;44512;53.046;18.604;2022-09-25T06:51:53;101430.09;;;12.15;62.64
58739;BME280;44512;53.046;18.604;2022-09-25T07:02:21;101438.54;;;12.27;62.77
58739;BME280;44512;53.046;18.604;2022-09-25T07:12:50;101431.29;;;12.34;62.81
58739;BME280;44512;53.046;18.604;2022-09-25T07:23:20;101433.05;;;12.41;62.90
58739;BME280;44512;53.046;18.604;2022-09-25T07:33:47;101431.84;;;12.50;63.04
58739;BME280;44512;53.046;18.604;2022-09-25T07:44:15;101436.36;;;12.65;63.06
58739;BME280;44512;53.046;18.604;2022-09-25T07:54:44;101431.05;;;12.78;63.08
58739;BME280;44512;53.046;18.604;2022-09-25T08:05:12;101433.00;;;12.91;62.89
58739;BME280;44512;53.046;18.604;2022-09-25T08:15:40;101417.18;;;13.01;62.81
58739;BME280;44512;53.046;18.604;2022-09-25T08:26:09;101410.34;;;13.12;62.80
58739;BME280;44512;53.046;18.604;2022-09-25T08:36:37;101408.13;;;13.22;62.58
58739;BME280;44512;53.046;18.604;2022-09-25T08:57:39;101410.74;;;13.43;62.49
58739;BME280;44512;53.046;18.604;2022-09-25T09:08:07;101399.93;;;13.57;62.31
58739;BME280;44512;53.046;18.604;2022-09-25T09:18:36;101384.50;;;13.70;62.11
58739;BME280;44512;53.046;18.604;2022-09-25T10:00:24;101356.09;;;14.26;60.61
58739;BME280;44512;53.046;18.604;2022-09-25T10:10:54;101347.31;;;14.37;60.18
58739;BME280;44512;53.046;18.604;2022-09-25T10:21:27;101341.87;;;14.50;59.94
58739;BME280;44512;53.046;18.604;2022-09-25T10:32:02;101334.08;;;14.67;58.61
58739;BME280;44512;53.046;18.604;2022-09-25T10:52:54;101320.77;;;15.04;55.52
58739;BME280;44512;53.046;18.604;2022-09-25T11:03:19;101315.27;;;15.17;54.64
58739;BME280;44512;53.046;18.604;2022-09-25T11:13:49;101308.72;;;15.31;52.10
58739;BME280;44512;53.046;18.604;2022-09-25T11:34:58;101293.27;;;15.50;51.42
58739;BME280;44512;53.046;18.604;2022-09-25T11:45:15;101278.95;;;15.61;51.51
58739;BME280;44512;53.046;18.604;2022-09-25T12:27:18;101250.20;;;15.91;51.45
58739;BME280;44512;53.046;18.604;2022-09-25T12:48:04;101242.73;;;16.04;50.93
58739;BME280;44512;53.046;18.604;2022-09-25T13:19:26;101213.33;;;16.25;50.62
58739;BME280;44512;53.046;18.604;2022-09-25T13:29:59;101203.63;;;16.29;50.57
58739;BME280;44512;53.046;18.604;2022-09-25T13:40:25;101205.60;;;16.40;50.64
58739;BME280;44512;53.046;18.604;2022-09-25T13:51:24;101195.43;;;16.47;51.18
58739;BME280;44512;53.046;18.604;2022-09-25T14:22:27;101181.61;;;16.79;49.09
58739;BME280;44512;53.046;18.604;2022-09-25T14:53:45;101162.98;;;17.17;47.79
58739;BME280;44512;53.046;18.604;2022-09-25T15:04:08;101161.46;;;17.22;47.91
58739;BME280;44512;53.046;18.604;2022-09-25T15:14:36;101148.13;;;17.25;48.25
58739;BME280;44512;53.046;18.604;2022-09-25T15:25:06;101145.90;;;17.34;48.36
58739;BME280;44512;53.046;18.604;2022-09-25T15:35:32;101133.89;;;17.47;48.05
58739;BME280;44512;53.046;18.604;2022-09-25T15:56:37;101127.16;;;17.73;47.70
58739;BME280;44512;53.046;18.604;2022-09-25T16:06:58;101125.16;;;17.80;47.77
58739;BME280;44512;53.046;18.604;2022-09-25T16:17:38;101125.03;;;17.75;48.68
58739;BME280;44512;53.046;18.604;2022-09-25T16:28:03;101116.18;;;17.61;49.33
58739;BME280;44512;53.046;18.604;2022-09-25T16:38:30;101107.39;;;17.47;50.45
58739;BME280;44512;53.046;18.604;2022-09-25T16:54:01;101105.68;;;17.23;51.84
58739;BME280;44512;53.046;18.604;2022-09-25T17:04:30;101103.14;;;17.09;52.75
58739;BME280;44512;53.046;18.604;2022-09-25T17:14:59;101098.93;;;16.95;53.40
58739;BME280;44512;53.046;18.604;2022-09-25T17:36:02;101084.96;;;16.73;54.75
58739;BME280;44512;53.046;18.604;2022-09-25T17:46:26;101076.95;;;16.60;55.11
58739;BME280;44512;53.046;18.604;2022-09-25T17:56:51;101078.77;;;16.48;55.02
58739;BME280;44512;53.046;18.604;2022-09-25T18:07:20;101067.21;;;16.34;55.20
58739;BME280;44512;53.046;18.604;2022-09-25T18:17:49;101065.08;;;16.18;55.34
58739;BME280;44512;53.046;18.604;2022-09-25T18:28:17;101063.20;;;16.00;55.46
58739;BME280;44512;53.046;18.604;2022-09-25T18:38:45;101062.98;;;15.83;55.85
58739;BME280;44512;53.046;18.604;2022-09-25T18:49:13;101055.16;;;15.68;56.21
58739;BME280;44512;53.046;18.604;2022-09-25T18:59:42;101052.36;;;15.50;56.13
58739;BME280;44512;53.046;18.604;2022-09-25T19:10:10;101051.52;;;15.31;56.31
58739;BME280;44512;53.046;18.604;2022-09-25T19:20:47;101047.45;;;15.15;56.34
58739;BME280;44512;53.046;18.604;2022-09-25T19:31:14;101050.34;;;14.95;56.15
58739;BME280;44512;53.046;18.604;2022-09-25T19:41:36;101055.70;;;14.77;56.48
58739;BME280;44512;53.046;18.604;2022-09-25T19:52:04;101046.39;;;14.59;56.43
58739;BME280;44512;53.046;18.604;2022-09-25T20:02:32;101047.53;;;14.39;56.30
58739;BME280;44512;53.046;18.604;2022-09-25T20:13:01;101041.11;;;14.20;56.34
58739;BME280;44512;53.046;18.604;2022-09-25T20:23:29;101043.27;;;14.04;56.66
58739;BME280;44512;53.046;18.604;2022-09-25T20:33:57;101039.98;;;13.89;56.67
58739;BME280;44512;53.046;18.604;2022-09-25T20:44:26;101035.43;;;13.76;56.63
58739;BME280;44512;53.046;18.604;2022-09-25T20:54:54;101030.23;;;13.62;56.62
58739;BME280;44512;53.046;18.604;2022-09-25T21:05:23;101010.20;;;13.49;56.79
58739;BME280;44512;53.046;18.604;2022-09-25T21:15:52;101010.81;;;13.38;57.01
58739;BME280;44512;53.046;18.604;2022-09-25T21:26:22;101002.26;;;13.28;57.06
58739;BME280;44512;53.046;18.604;2022-09-25T21:36:48;100995.36;;;13.19;57.35
58739;BME280;44512;53.046;18.604;2022-09-25T21:47:16;100980.31;;;13.10;57.64
58739;BME280;44512;53.046;18.604;2022-09-25T21:57:45;100978.63;;;13.02;57.96
58739;BME280;44512;53.046;18.604;2022-09-25T22:08:13;100957.35;;;12.92;58.30
58739;BME280;44512;53.046;18.604;2022-09-25T22:29:11;100936.88;;;12.83;59.21
58739;BME280;44512;53.046;18.604;2022-09-25T22:39:39;100936.88;;;12.83;59.80
58739;BME280;44512;53.046;18.604;2022-09-25T22:50:08;100917.20;;;12.81;60.32
58739;BME280;44512;53.046;18.604;2022-09-25T23:00:36;100913.66;;;12.81;60.84
58739;BME280;44512;53.046;18.604;2022-09-25T23:11:05;100904.67;;;12.80;61.01
58739;BME280;44512;53.046;18.604;2022-09-25T23:21:33;100901.54;;;12.76;61.18
58739;BME280;44512;53.046;18.604;2022-09-25T23:32:01;100889.64;;;12.71;61.57
58739;BME280;44512;53.046;18.604;2022-09-25T23:42:30;100885.48;;;12.68;61.85
58739;BME280;44512;53.046;18.604;2022-09-25T23:52:58;100866.70;;;12.67;62.03
